Time;durP1;ratioP1;P1;durP2;ratioP2;P2;SDS_P1;SDS_P2;PMS_P1;PMS_P2;Temp;Humidity;BMP_temperature;BMP_pressure;BME280_temperature;BME280_humidity;BME280_pressure;Samples;Min_cycle;Max_cycle;Signal;HPM_P1;HPM_P2
2021/10/23 00:04:37;;;;;;;10.30;1.60;;;6.10;99.90;;;;;;12309747;28;20050;-86
2021/10/23 00:10:39;;;;;;;15.50;2.22;;;5.90;99.90;;;;;;12344823;28;20046;-86
2021/10/23 00:16:41;;;;;;;17.75;2.03;;;5.80;99.90;;;;;;12308379;28;21986;-85
2021/10/23 00:22:43;;;;;;;13.93;2.40;;;6.00;99.90;;;;;;12313829;28;20529;-85
2021/10/23 00:28:45;;;;;;;16.52;2.50;;;5.90;99.90;;;;;;12309751;28;20058;-85
2021/10/23 00:34:47;;;;;;;13.35;1.88;;;6.00;99.90;;;;;;12310430;28;20050;-86
2021/10/23 00:40:49;;;;;;;9.02;1.73;;;6.00;99.90;;;;;;12314602;28;20047;-85
2021/10/23 00:46:50;;;;;;;16.55;2.47;;;5.90;99.90;;;;;;12309944;28;20409;-85
2021/10/23 00:52:52;;;;;;;10.82;2.30;;;5.80;99.90;;;;;;12316154;28;20464;-86
2021/10/23 00:58:54;;;;;;;8.23;1.88;;;5.90;99.90;;;;;;12316275;28;20094;-86
2021/10/23 01:04:56;;;;;;;9.88;2.28;;;5.80;99.90;;;;;;12346472;28;20053;-85
2021/10/23 01:10:58;;;;;;;8.57;1.60;;;6.00;99.90;;;;;;12310487;28;20096;-86
2021/10/23 01:17:00;;;;;;;11.02;1.83;;;6.00;99.90;;;;;;12308101;28;20054;-86
2021/10/23 01:23:03;;;;;;;13.27;1.80;;;6.10;99.90;;;;;;12310082;28;20154;-85
2021/10/23 01:29:07;;;;;;;11.50;1.67;;;5.90;99.90;;;;;;12333044;28;20062;-85
2021/10/23 01:35:09;;;;;;;8.63;1.88;;;5.90;99.90;;;;;;12307122;28;20050;-85
2021/10/23 01:41:11;;;;;;;18.38;2.20;;;5.90;99.90;;;;;;12302632;28;20104;-85
2021/10/23 01:47:14;;;;;;;10.60;1.90;;;5.80;99.90;;;;;;12298713;28;20109;-86
2021/10/23 01:53:16;;;;;;;8.20;1.60;;;5.80;99.90;;;;;;12331991;28;20134;-84
2021/10/23 01:59:18;;;;;;;13.80;2.28;;;5.90;99.90;;;;;;12317825;28;20081;-85
2021/10/23 02:05:20;;;;;;;11.02;2.13;;;5.80;99.90;;;;;;12302525;28;20055;-85
2021/10/23 02:11:22;;;;;;;10.20;1.92;;;5.70;99.90;;;;;;12306993;28;20444;-85
2021/10/23 02:17:25;;;;;;;8.80;1.92;;;5.80;99.90;;;;;;12296363;28;20776;-85
2021/10/23 02:23:27;;;;;;;14.32;1.98;;;5.80;99.90;;;;;;12297108;28;20049;-85
2021/10/23 02:29:29;;;;;;;10.35;2.53;;;5.80;99.90;;;;;;12299159;28;20872;-85
2021/10/23 02:35:31;;;;;;;14.27;2.22;;;5.70;99.90;;;;;;12294328;28;20217;-85
2021/10/23 02:41:33;;;;;;;8.88;2.00;;;5.70;99.90;;;;;;12296138;28;20104;-85
2021/10/23 02:47:35;;;;;;;17.92;2.20;;;5.70;99.90;;;;;;12302531;28;20062;-85
2021/10/23 02:53:37;;;;;;;9.43;2.28;;;5.60;99.90;;;;;;12298833;28;20396;-85
2021/10/23 02:59:40;;;;;;;10.20;2.10;;;5.60;99.90;;;;;;12305217;28;20051;-87
2021/10/23 03:05:42;;;;;;;7.43;1.77;;;5.80;99.90;;;;;;12304265;28;20987;-85
2021/10/23 03:11:44;;;;;;;17.75;2.05;;;5.90;99.90;;;;;;12306196;28;20057;-86
2021/10/23 03:17:46;;;;;;;8.35;1.80;;;5.90;99.90;;;;;;12301355;28;20051;-86
2021/10/23 03:23:48;;;;;;;9.82;1.90;;;6.00;99.90;;;;;;12296648;28;20047;-87
2021/10/23 03:29:50;;;;;;;14.23;2.08;;;5.90;99.90;;;;;;12304008;28;20051;-85
2021/10/23 03:35:52;;;;;;;21.25;2.80;;;5.80;99.90;;;;;;12332390;28;20178;-85
2021/10/23 03:41:54;;;;;;;15.00;2.92;;;5.80;99.90;;;;;;12294839;28;20120;-85
2021/10/23 03:47:56;;;;;;;16.63;2.72;;;5.60;99.90;;;;;;12302948;28;20054;-85
2021/10/23 03:53:58;;;;;;;15.75;2.10;;;5.70;99.90;;;;;;12299354;28;20054;-86
2021/10/23 03:59:59;;;;;;;8.00;2.00;;;5.70;99.90;;;;;;12299874;28;20043;-86
2021/10/23 04:06:01;;;;;;;13.07;2.20;;;5.90;99.90;;;;;;12304780;28;20485;-85
2021/10/23 04:12:03;;;;;;;11.13;2.13;;;5.90;99.90;;;;;;12309806;28;20051;-85
2021/10/23 04:18:05;;;;;;;11.82;1.98;;;5.90;99.90;;;;;;12311475;28;20459;-85
2021/10/23 04:24:09;;;;;;;12.93;2.08;;;5.90;99.90;;;;;;12307721;28;20151;-85
2021/10/23 04:30:11;;;;;;;13.67;2.20;;;5.80;99.90;;;;;;12339079;28;20152;-85
2021/10/23 04:36:12;;;;;;;11.68;1.98;;;5.80;99.90;;;;;;12321777;28;20471;-85
2021/10/23 04:42:14;;;;;;;13.85;2.80;;;5.80;99.90;;;;;;12308299;28;20502;-85
2021/10/23 04:48:16;;;;;;;12.75;1.95;;;5.80;99.90;;;;;;12307093;28;20138;-86
2021/10/23 04:54:18;;;;;;;12.40;2.25;;;5.80;99.90;;;;;;12303889;28;20058;-85
2021/10/23 05:00:20;;;;;;;15.27;2.50;;;5.90;99.90;;;;;;12306838;28;20388;-85
2021/10/23 05:06:22;;;;;;;12.15;2.20;;;6.00;99.90;;;;;;12324404;28;20065;-85
2021/10/23 05:12:24;;;;;;;12.23;2.50;;;6.00;99.90;;;;;;12307978;28;20105;-85
2021/10/23 05:18:26;;;;;;;11.73;2.35;;;6.00;99.90;;;;;;12304915;28;20574;-85
2021/10/23 05:24:28;;;;;;;13.85;3.80;;;6.00;99.90;;;;;;12339004;28;20057;-85
2021/10/23 05:30:30;;;;;;;12.70;2.67;;;6.00;99.90;;;;;;12299109;28;20126;-85
2021/10/23 05:36:31;;;;;;;14.63;2.70;;;5.90;99.90;;;;;;12303791;28;20054;-85
2021/10/23 05:42:37;;;;;;;8.35;2.38;;;5.80;99.90;;;;;;12302558;28;20097;-85
2021/10/23 05:48:40;;;;;;;14.27;3.13;;;5.80;99.90;;;;;;12309210;28;20569;-85
2021/10/23 05:54:42;;;;;;;10.65;2.95;;;5.70;99.90;;;;;;12301800;28;20360;-85
2021/10/23 06:00:49;;;;;;;10.48;3.05;;;5.60;99.90;;;;;;12302696;28;20050;-84
2021/10/23 06:06:51;;;;;;;17.08;3.05;;;5.60;99.90;;;;;;12299564;28;20081;-84
2021/10/23 06:12:53;;;;;;;12.52;3.03;;;5.60;99.90;;;;;;12299796;28;20039;-84
2021/10/23 06:18:55;;;;;;;9.85;2.75;;;5.50;99.90;;;;;;12302299;28;20185;-84
2021/10/23 06:24:57;;;;;;;12.60;4.05;;;5.60;99.90;;;;;;12301427;28;20314;-85
2021/10/23 06:30:58;;;;;;;13.50;3.88;;;5.70;99.90;;;;;;12299632;28;20108;-85
2021/10/23 06:37:00;;;;;;;13.10;4.13;;;5.80;99.90;;;;;;12300864;28;20174;-84
2021/10/23 06:43:02;;;;;;;14.23;4.70;;;5.80;99.90;;;;;;12298760;28;20066;-85
2021/10/23 06:49:07;;;;;;;16.30;5.10;;;5.80;99.90;;;;;;12301360;28;20342;-85
2021/10/23 06:55:09;;;;;;;16.50;5.85;;;6.00;99.90;;;;;;12298084;28;20567;-84
2021/10/23 07:01:11;;;;;;;17.48;6.00;;;6.10;99.90;;;;;;12295001;28;21083;-85
2021/10/23 07:07:13;;;;;;;21.23;6.70;;;6.10;99.90;;;;;;12301205;28;20065;-85
2021/10/23 07:13:15;;;;;;;15.02;7.68;;;6.10;99.90;;;;;;12300769;28;20051;-85
2021/10/23 07:19:17;;;;;;;17.15;7.10;;;6.20;99.90;;;;;;12304737;28;20051;-84
2021/10/23 07:25:20;;;;;;;15.85;7.57;;;6.30;99.90;;;;;;12298237;28;20042;-85
2021/10/23 07:31:22;;;;;;;17.17;7.57;;;6.30;99.90;;;;;;12306015;28;20051;-84
2021/10/23 07:37:24;;;;;;;18.48;8.73;;;6.30;99.90;;;;;;12295467;28;20572;-85
2021/10/23 07:43:26;;;;;;;20.75;8.27;;;6.40;99.90;;;;;;12344451;28;20073;-85
2021/10/23 07:49:27;;;;;;;16.13;8.45;;;6.50;99.90;;;;;;12313837;28;20665;-84
2021/10/23 07:55:32;;;;;;;17.40;8.02;;;6.60;99.90;;;;;;12304783;28;20055;-85
2021/10/23 08:01:34;;;;;;;18.20;6.78;;;6.70;99.90;;;;;;12346685;28;20046;-84
2021/10/23 08:07:36;;;;;;;19.55;8.23;;;6.70;99.90;;;;;;12314132;28;20078;-85
2021/10/23 08:13:37;;;;;;;17.05;7.78;;;6.80;99.90;;;;;;12306574;28;20054;-85
2021/10/23 08:19:39;;;;;;;16.05;6.90;;;6.90;99.90;;;;;;12304463;28;20145;-85
2021/10/23 08:25:41;;;;;;;19.52;7.32;;;7.00;99.90;;;;;;12307406;28;20047;-85
2021/10/23 08:31:44;;;;;;;16.05;7.68;;;7.10;99.90;;;;;;12310765;28;20047;-85
2021/10/23 08:37:47;;;;;;;18.67;7.70;;;7.20;99.90;;;;;;12317551;28;20051;-84
2021/10/23 08:43:49;;;;;;;15.50;7.30;;;7.30;99.90;;;;;;12310202;28;20042;-85
2021/10/23 08:49:52;;;;;;;20.08;7.47;;;7.40;99.90;;;;;;12302082;28;20058;-86
2021/10/23 08:55:55;;;;;;;14.20;6.53;;;7.70;99.90;;;;;;12309363;28;20069;-85
2021/10/23 09:02:02;;;;;;;20.50;6.43;;;7.80;99.90;;;;;;12338283;28;20050;-85
2021/10/23 09:08:14;;;;;;;15.25;6.03;;;7.90;99.90;;;;;;12310399;28;20495;-85
2021/10/23 09:14:38;;;;;;;14.75;6.20;;;8.00;99.90;;;;;;12321815;28;20051;-85
2021/10/23 09:20:41;;;;;;;13.50;5.95;;;8.40;99.90;;;;;;12313735;28;20074;-85
2021/10/23 09:26:45;;;;;;;15.10;5.25;;;8.60;99.90;;;;;;12329790;28;20048;-85
2021/10/23 09:32:55;;;;;;;16.50;5.68;;;8.60;99.90;;;;;;12309356;28;20051;-85
2021/10/23 09:39:01;;;;;;;19.17;5.43;;;8.60;99.90;;;;;;12339896;28;20491;-85
2021/10/23 09:45:05;;;;;;;13.45;4.85;;;8.80;99.90;;;;;;12304864;28;20054;-86
2021/10/23 09:51:19;;;;;;;19.13;5.03;;;9.30;99.90;;;;;;12300430;28;20042;-86
2021/10/23 09:57:29;;;;;;;12.15;4.45;;;9.70;99.90;;;;;;12301123;28;20141;-84
2021/10/23 10:03:33;;;;;;;14.90;5.05;;;9.90;99.90;;;;;;12298841;28;20091;-86
2021/10/23 10:09:35;;;;;;;9.65;4.00;;;10.30;99.90;;;;;;12303958;28;20543;-85
2021/10/23 10:15:58;;;;;;;9.65;3.28;;;10.30;99.90;;;;;;12305698;28;20109;-87
2021/10/23 10:22:06;;;;;;;13.30;4.53;;;10.40;99.90;;;;;;12310033;28;20050;-85
2021/10/23 10:28:13;;;;;;;10.93;3.72;;;10.60;99.90;;;;;;12309631;28;20047;-86
2021/10/23 10:34:38;;;;;;;10.68;3.00;;;10.70;99.90;;;;;;12336097;28;20204;-87
2021/10/23 10:47:02;;;;;;;8.70;2.83;;;10.90;99.90;;;;;;12314267;28;20567;-85
2021/10/23 10:53:26;;;;;;;10.32;2.83;;;10.90;99.90;;;;;;12313713;28;20137;-86
2021/10/23 10:59:51;;;;;;;9.90;2.37;;;11.10;99.90;;;;;;12353997;28;20129;-86
2021/10/23 11:05:53;;;;;;;;;;;11.10;99.90;;;;;;12315760;28;20173;-86
2021/10/23 11:11:57;;;;;;;11.15;2.92;;;10.90;99.90;;;;;;12316226;28;19926;-87
2021/10/23 11:17:59;;;;;;;7.63;2.97;;;11.00;99.90;;;;;;12326964;28;20047;-85
2021/10/23 11:24:01;;;;;;;13.65;3.00;;;11.10;99.90;;;;;;12356838;28;20043;-86
2021/10/23 11:30:27;;;;;;;11.82;2.70;;;11.20;99.90;;;;;;12321852;28;20170;-86
2021/10/23 11:36:28;;;;;;;12.10;3.00;;;11.10;99.90;;;;;;12333997;28;20110;-86
2021/10/23 11:42:33;;;;;;;16.27;2.85;;;11.30;99.90;;;;;;12317005;28;20289;-86
2021/10/23 11:48:36;;;;;;;8.68;2.85;;;11.50;99.90;;;;;;12317850;28;20519;-86
2021/10/23 11:54:43;;;;;;;12.02;2.80;;;11.50;99.90;;;;;;12316388;28;20077;-84
2021/10/23 12:00:51;;;;;;;10.77;2.53;;;11.50;99.90;;;;;;12310808;28;20071;-85
2021/10/23 12:06:53;;;;;;;12.57;2.53;;;11.60;99.90;;;;;;12314408;28;20128;-86
2021/10/23 12:13:10;;;;;;;8.98;2.70;;;11.40;99.90;;;;;;12307878;28;20047;-86
2021/10/23 12:19:16;;;;;;;8.93;2.97;;;11.70;99.90;;;;;;12313756;28;20105;-85
2021/10/23 12:25:18;;;;;;;11.10;2.83;;;11.70;99.90;;;;;;12295926;28;20576;-85
2021/10/23 12:31:20;;;;;;;8.38;2.42;;;11.90;99.90;;;;;;12306690;28;20426;-85
2021/10/23 12:37:44;;;;;;;11.20;2.22;;;11.90;99.90;;;;;;12311377;28;20050;-85
2021/10/23 12:43:46;;;;;;;5.83;1.43;;;12.00;99.90;;;;;;12310759;28;20055;-86
2021/10/23 12:49:48;;;;;;;9.52;1.33;;;11.90;99.90;;;;;;12306409;28;20511;-85
2021/10/23 12:55:50;;;;;;;10.23;1.50;;;11.80;99.90;;;;;;12306989;28;20047;-84
2021/10/23 13:01:51;;;;;;;5.80;1.40;;;11.60;99.90;;;;;;12299539;28;20411;-86
2021/10/23 13:07:54;;;;;;;5.60;1.33;;;11.70;99.90;;;;;;12305260;28;20085;-86
2021/10/23 13:13:59;;;;;;;11.75;1.55;;;11.50;99.90;;;;;;12311927;28;20133;-85
2021/10/23 13:20:04;;;;;;;9.70;1.48;;;11.50;99.90;;;;;;12302084;28;20055;-85
2021/10/23 13:26:06;;;;;;;6.43;1.50;;;11.50;99.90;;;;;;12286135;28;20054;-85
2021/10/23 13:32:09;;;;;;;11.48;1.90;;;11.30;99.90;;;;;;12292484;28;20165;-85
2021/10/23 13:38:12;;;;;;;8.95;1.67;;;11.20;99.90;;;;;;12304500;28;20480;-86
2021/10/23 13:44:14;;;;;;;7.15;1.83;;;11.20;99.90;;;;;;12305474;28;20059;-85
2021/10/23 13:50:16;;;;;;;7.28;1.63;;;11.10;99.90;;;;;;12307436;28;20069;-85
2021/10/23 13:56:18;;;;;;;10.77;1.80;;;11.30;99.90;;;;;;12305368;28;20508;-86
2021/10/23 14:02:20;;;;;;;8.00;1.60;;;11.60;99.90;;;;;;12323219;28;20059;-86
2021/10/23 14:08:22;;;;;;;7.38;1.45;;;11.60;99.90;;;;;;12307036;28;20054;-86
2021/10/23 14:14:24;;;;;;;5.68;1.45;;;11.60;99.90;;;;;;12299388;28;20121;-85
2021/10/23 14:20:26;;;;;;;8.35;1.45;;;11.50;99.90;;;;;;12304570;28;25334;-85
2021/10/23 14:26:28;;;;;;;7.45;2.20;;;11.40;99.90;;;;;;12304015;28;20059;-85
2021/10/23 14:32:30;;;;;;;10.60;1.70;;;11.40;99.90;;;;;;12331098;28;20487;-84
2021/10/23 14:38:33;;;;;;;9.50;1.63;;;11.30;99.90;;;;;;12325046;28;20047;-86
2021/10/23 14:44:35;;;;;;;8.85;1.98;;;11.10;99.90;;;;;;12302811;28;20051;-85
2021/10/23 14:50:38;;;;;;;5.75;1.60;;;11.00;99.90;;;;;;12303074;28;20931;-85
2021/10/23 14:56:40;;;;;;;6.30;1.42;;;10.90;99.90;;;;;;12294760;28;20727;-86
2021/10/23 15:02:42;;;;;;;7.00;1.25;;;10.80;99.90;;;;;;12300364;28;20551;-84
2021/10/23 15:08:44;;;;;;;6.68;1.77;;;10.70;99.90;;;;;;12300831;28;20407;-85
2021/10/23 15:14:46;;;;;;;15.35;2.00;;;10.80;99.90;;;;;;12294531;28;20097;-84
2021/10/23 15:20:48;;;;;;;4.78;1.45;;;10.70;99.90;;;;;;12299357;28;20051;-84
2021/10/23 15:26:50;;;;;;;8.05;1.63;;;10.60;99.90;;;;;;12292403;28;20050;-84
2021/10/23 15:32:53;;;;;;;6.63;1.67;;;10.50;99.90;;;;;;12287164;28;20197;-85
2021/10/23 15:38:56;;;;;;;7.57;2.00;;;10.40;99.90;;;;;;12300856;28;20055;-84
2021/10/23 15:44:59;;;;;;;11.45;2.00;;;10.10;99.90;;;;;;12298420;28;21543;-85
2021/10/23 15:51:01;;;;;;;8.10;2.05;;;10.00;99.90;;;;;;12326917;28;20047;-85
2021/10/23 15:57:03;;;;;;;6.32;1.60;;;9.90;99.90;;;;;;12295212;28;20047;-84
2021/10/23 16:03:06;;;;;;;6.68;1.73;;;9.90;99.90;;;;;;12295816;28;20046;-85
2021/10/23 16:09:08;;;;;;;7.53;2.05;;;9.70;99.90;;;;;;12310577;28;20137;-84
2021/10/23 16:15:11;;;;;;;8.63;1.98;;;9.50;99.90;;;;;;12306762;28;20489;-84
2021/10/23 16:21:13;;;;;;;6.15;1.90;;;9.30;99.90;;;;;;12303159;28;20455;-84
2021/10/23 16:27:17;;;;;;;10.07;1.80;;;9.20;99.90;;;;;;12309271;28;20451;-85
2021/10/23 16:33:19;;;;;;;13.68;2.90;;;9.00;99.90;;;;;;12302172;28;20475;-85
2021/10/23 16:39:21;;;;;;;9.90;2.28;;;8.70;99.90;;;;;;12302312;28;20427;-85
2021/10/23 16:45:22;;;;;;;9.65;2.30;;;8.70;99.90;;;;;;12335719;28;20524;-86
2021/10/23 16:51:24;;;;;;;9.82;2.30;;;8.60;99.90;;;;;;12304535;28;20049;-86
2021/10/23 16:57:26;;;;;;;11.75;2.03;;;8.50;99.90;;;;;;12306154;28;20053;-85
2021/10/23 17:03:28;;;;;;;8.05;2.00;;;8.50;99.90;;;;;;12301887;28;20072;-86
2021/10/23 17:09:30;;;;;;;11.63;2.25;;;8.50;99.90;;;;;;12296971;28;20149;-86
2021/10/23 17:15:32;;;;;;;8.82;2.25;;;8.50;99.90;;;;;;12313123;28;20054;-85
2021/10/23 17:21:34;;;;;;;9.10;1.92;;;8.50;99.90;;;;;;12332314;28;20054;-85
2021/10/23 17:27:38;;;;;;;7.80;1.98;;;8.40;99.90;;;;;;12299362;28;20069;-84
2021/10/23 17:33:41;;;;;;;13.73;2.33;;;8.50;99.90;;;;;;12303851;28;20100;-86
2021/10/23 17:39:43;;;;;;;8.77;2.42;;;8.30;99.90;;;;;;12335504;28;20043;-86
2021/10/23 17:45:44;;;;;;;9.27;2.13;;;8.20;99.90;;;;;;12325741;28;20141;-85
2021/10/23 17:51:46;;;;;;;10.90;2.10;;;7.90;99.90;;;;;;12303666;28;20046;-86
2021/10/23 17:57:49;;;;;;;10.32;2.78;;;7.70;99.90;;;;;;12304913;28;20050;-85
2021/10/23 18:03:51;;;;;;;12.02;2.38;;;7.80;99.90;;;;;;12319604;28;20379;-85
2021/10/23 18:09:54;;;;;;;15.80;2.90;;;7.80;99.90;;;;;;12314597;28;20733;-85
2021/10/23 18:16:03;;;;;;;12.25;2.63;;;7.70;99.90;;;;;;12310457;28;20059;-85
2021/10/23 18:22:05;;;;;;;9.75;2.28;;;7.80;99.90;;;;;;12313530;28;20050;-85
2021/10/23 18:28:12;;;;;;;11.35;2.75;;;7.70;99.90;;;;;;12300806;28;21756;-87
2021/10/23 18:34:14;;;;;;;11.13;2.15;;;7.80;99.90;;;;;;12327065;28;20051;-86
2021/10/23 18:40:16;;;;;;;9.52;2.80;;;7.60;99.90;;;;;;12289321;28;20054;-86
2021/10/23 18:46:18;;;;;;;12.57;2.60;;;7.70;99.90;;;;;;12300612;28;20059;-84
2021/10/23 18:52:20;;;;;;;10.35;2.50;;;7.70;99.90;;;;;;12329321;28;20121;-85
2021/10/23 18:58:25;;;;;;;12.00;2.72;;;7.80;99.90;;;;;;12295234;28;20396;-85
2021/10/23 19:04:27;;;;;;;8.55;2.58;;;7.80;99.90;;;;;;12297054;28;20134;-86
2021/10/23 19:10:28;;;;;;;10.13;2.72;;;7.70;99.90;;;;;;12294021;28;20058;-85
2021/10/23 19:16:31;;;;;;;12.50;2.70;;;7.60;99.90;;;;;;12306452;28;20407;-86
2021/10/23 19:22:34;;;;;;;7.35;2.30;;;7.60;99.90;;;;;;12298113;28;20554;-85
2021/10/23 19:28:36;;;;;;;11.85;2.50;;;7.60;99.90;;;;;;12295254;28;20078;-85
2021/10/23 19:34:39;;;;;;;11.07;2.65;;;7.50;99.90;;;;;;12296246;28;20090;-86
2021/10/23 19:40:41;;;;;;;9.90;2.90;;;7.60;99.90;;;;;;12299926;28;20121;-85
2021/10/23 19:46:43;;;;;;;9.07;3.17;;;7.70;99.90;;;;;;12286688;28;20062;-86
2021/10/23 19:52:45;;;;;;;13.05;2.78;;;7.60;99.90;;;;;;12290068;28;20046;-85
2021/10/23 19:58:47;;;;;;;11.88;2.72;;;7.50;99.90;;;;;;12304567;28;20487;-85
2021/10/23 20:04:49;;;;;;;12.57;2.70;;;7.50;99.90;;;;;;12347180;28;20671;-84
2021/10/23 20:10:52;;;;;;;14.27;3.17;;;7.60;99.90;;;;;;12310109;28;20153;-85
2021/10/23 20:16:53;;;;;;;13.18;3.47;;;7.50;99.90;;;;;;12315790;28;20051;-86
2021/10/23 20:22:55;;;;;;;12.18;2.70;;;7.40;99.90;;;;;;12312297;28;20058;-85
2021/10/23 20:28:59;;;;;;;11.60;3.50;;;7.70;99.90;;;;;;12305672;28;20120;-85
2021/10/23 20:35:01;;;;;;;14.87;6.23;;;7.70;99.90;;;;;;12303014;28;20131;-85
2021/10/23 20:41:03;;;;;;;11.50;5.70;;;7.60;99.90;;;;;;12305244;28;20051;-85
2021/10/23 20:47:05;;;;;;;18.75;7.18;;;7.30;99.90;;;;;;12299280;28;20553;-85
2021/10/23 20:53:06;;;;;;;15.43;7.25;;;7.20;99.90;;;;;;12300434;28;20046;-85
2021/10/23 20:59:08;;;;;;;14.48;6.88;;;7.10;99.90;;;;;;12301166;28;20127;-85
2021/10/23 21:05:11;;;;;;;17.00;6.55;;;7.10;99.90;;;;;;12297731;28;20070;-85
2021/10/23 21:11:13;;;;;;;20.77;8.75;;;6.90;99.90;;;;;;12303287;28;20047;-85
2021/10/23 21:17:15;;;;;;;11.98;5.25;;;6.80;99.90;;;;;;12298787;28;20074;-84
2021/10/23 21:23:17;;;;;;;17.38;5.72;;;6.60;99.90;;;;;;12294762;28;20051;-85
2021/10/23 21:29:19;;;;;;;27.48;18.60;;;6.40;99.90;;;;;;12303067;28;20126;-84
2021/10/23 21:35:21;;;;;;;14.10;7.13;;;6.30;99.90;;;;;;12295999;28;20050;-86
2021/10/23 21:41:23;;;;;;;13.00;4.55;;;6.50;99.90;;;;;;12303533;28;20104;-85
2021/10/23 21:47:25;;;;;;;11.13;3.80;;;6.50;99.90;;;;;;12287490;28;20116;-86
2021/10/23 21:53:27;;;;;;;10.05;3.80;;;6.60;99.90;;;;;;12300621;28;20569;-84
2021/10/23 21:59:29;;;;;;;12.32;3.88;;;6.60;99.90;;;;;;12293426;28;20093;-85
2021/10/23 22:05:30;;;;;;;11.00;4.97;;;6.50;99.90;;;;;;12301666;28;20055;-85
2021/10/23 22:11:32;;;;;;;11.73;4.13;;;6.40;99.90;;;;;;12300622;28;21257;-85
2021/10/23 22:17:34;;;;;;;10.15;3.70;;;6.30;99.90;;;;;;12301710;28;20089;-84
2021/10/23 22:23:36;;;;;;;12.10;4.13;;;6.30;99.90;;;;;;12298682;28;20081;-85
2021/10/23 22:29:40;;;;;;;11.23;4.25;;;6.20;99.90;;;;;;12304901;28;20313;-86
2021/10/23 22:35:42;;;;;;;12.85;4.20;;;6.30;99.90;;;;;;12314615;28;20053;-85
2021/10/23 22:41:45;;;;;;;10.82;3.53;;;6.20;99.90;;;;;;12303005;28;20126;-84
2021/10/23 22:47:48;;;;;;;10.18;4.07;;;6.30;99.90;;;;;;12302482;28;20161;-85
2021/10/23 22:53:49;;;;;;;9.77;4.28;;;6.20;99.90;;;;;;12328855;28;20039;-85
2021/10/23 22:59:51;;;;;;;11.32;3.78;;;6.20;99.90;;;;;;12292809;28;20046;-85
2021/10/23 23:05:53;;;;;;;10.90;3.45;;;6.10;99.90;;;;;;12305354;28;20072;-84
2021/10/23 23:12:00;;;;;;;9.40;3.72;;;6.10;99.90;;;;;;12297686;28;20042;-84
2021/10/23 23:18:02;;;;;;;11.65;3.95;;;5.90;99.90;;;;;;12309578;28;20054;-84
2021/10/23 23:24:04;;;;;;;13.55;4.30;;;5.90;99.90;;;;;;12308729;28;20546;-85
2021/10/23 23:30:06;;;;;;;11.20;4.65;;;5.90;99.90;;;;;;12301706;28;20887;-85
2021/10/23 23:36:09;;;;;;;13.85;5.22;;;5.80;99.90;;;;;;12311587;28;20051;-84
2021/10/23 23:42:11;;;;;;;16.52;6.30;;;5.80;99.90;;;;;;12307537;28;20049;-85
2021/10/23 23:48:13;;;;;;;15.27;7.72;;;5.80;99.90;;;;;;12290865;28;20057;-85
2021/10/23 23:54:15;;;;;;;14.63;7.55;;;5.70;99.90;;;;;;12310134;28;20109;-84
